createdAt,value
2018-12-21T00:00:52.221Z,0.00
2018-12-21T00:01:52.223Z,0.00
2018-12-21T00:02:52.198Z,0.00
2018-12-21T00:03:52.187Z,0.00
2018-12-21T00:04:52.176Z,0.00
2018-12-21T00:05:52.198Z,0.00
2018-12-21T00:06:52.155Z,0.00
2018-12-21T00:07:52.161Z,0.00
2018-12-21T00:08:52.142Z,0.00
2018-12-21T00:09:52.125Z,0.00
2018-12-21T00:10:52.136Z,0.00
2018-12-21T00:11:52.100Z,0.00
2018-12-21T00:12:52.085Z,0.00
2018-12-21T00:13:52.076Z,0.00
2018-12-21T00:14:52.062Z,0.00
2018-12-21T00:15:52.072Z,0.00
2018-12-21T00:16:52.083Z,0.00
2018-12-21T00:17:52.032Z,0.00
2018-12-21T00:18:52.023Z,0.00
2018-12-21T00:19:52.006Z,0.00
2018-12-21T00:20:52.014Z,0.00
2018-12-21T00:21:51.985Z,0.00
2018-12-21T00:22:52.011Z,0.00
2018-12-21T00:23:51.967Z,0.00
2018-12-21T00:24:51.953Z,0.00
2018-12-21T00:25:51.946Z,0.00
2018-12-21T00:26:51.928Z,0.00
2018-12-21T00:27:51.955Z,0.00
2018-12-21T00:28:51.921Z,0.00
2018-12-21T00:29:51.906Z,0.00
2018-12-21T00:30:51.882Z,0.00
2018-12-21T00:31:51.913Z,0.00
2018-12-21T00:32:51.867Z,0.00
2018-12-21T00:33:51.852Z,0.00
2018-12-21T00:34:51.847Z,0.00
2018-12-21T00:35:51.860Z,0.00
2018-12-21T00:36:51.905Z,0.00
2018-12-21T00:37:51.843Z,0.00
2018-12-21T00:38:51.794Z,0.00
2018-12-21T00:39:51.800Z,0.00
2018-12-21T00:40:51.781Z,0.00
2018-12-21T00:41:51.761Z,0.00
2018-12-21T00:42:51.912Z,0.00
2018-12-21T00:43:51.755Z,0.00
2018-12-21T00:44:51.737Z,0.00
2018-12-21T00:45:51.724Z,0.00
2018-12-21T00:46:51.710Z,0.00
2018-12-21T00:47:51.736Z,0.00
2018-12-21T00:48:51.683Z,0.00
2018-12-21T00:49:51.672Z,0.00
2018-12-21T00:50:51.659Z,0.00
2018-12-21T00:51:51.651Z,0.00
2018-12-21T00:52:51.787Z,0.00
2018-12-21T00:53:51.633Z,0.00
2018-12-21T00:54:51.631Z,0.00
2018-12-21T00:55:51.621Z,0.00
2018-12-21T00:56:51.592Z,0.00
2018-12-21T00:57:51.585Z,0.00
2018-12-21T00:58:51.650Z,0.00
2018-12-21T00:59:51.565Z,0.00
2018-12-21T01:00:51.552Z,0.00
2018-12-21T01:01:51.535Z,0.00
2018-12-21T01:02:51.527Z,0.00
2018-12-21T01:03:51.512Z,0.00
2018-12-21T01:04:51.548Z,0.00
2018-12-21T01:05:51.492Z,0.00
2018-12-21T01:06:51.491Z,0.00
2018-12-21T01:07:51.476Z,0.00
2018-12-21T01:08:51.465Z,0.00
2018-12-21T01:09:51.445Z,0.00
2018-12-21T01:10:51.469Z,0.00
2018-12-21T01:11:51.427Z,0.00
2018-12-21T01:12:51.415Z,0.00
2018-12-21T01:13:51.420Z,0.00
2018-12-21T01:14:51.392Z,0.00
2018-12-21T01:15:51.379Z,0.00
2018-12-21T01:16:51.461Z,0.00
2018-12-21T01:17:51.354Z,0.00
2018-12-21T01:18:51.347Z,0.00
2018-12-21T01:19:51.346Z,0.00
2018-12-21T01:20:51.321Z,0.00
2018-12-21T01:21:51.335Z,0.00
2018-12-21T01:22:51.308Z,0.00
2018-12-21T01:23:51.298Z,0.00
2018-12-21T01:24:51.283Z,0.00
2018-12-21T01:25:51.320Z,0.00
2018-12-21T01:26:51.290Z,0.00
2018-12-21T01:27:51.246Z,0.00
2018-12-21T01:28:51.233Z,0.00
2018-12-21T01:29:51.229Z,0.00
2018-12-21T01:30:51.213Z,0.00
2018-12-21T01:31:51.229Z,0.00
2018-12-21T01:32:51.195Z,0.00
2018-12-21T01:33:51.198Z,0.00
2018-12-21T01:34:51.166Z,0.00
2018-12-21T01:35:51.156Z,0.00
2018-12-21T01:36:51.280Z,0.00
2018-12-21T01:37:51.133Z,0.00
2018-12-21T01:38:51.122Z,0.00
2018-12-21T01:39:51.109Z,0.00
2018-12-21T01:40:51.100Z,0.00
2018-12-21T01:41:51.161Z,0.00
2018-12-21T01:42:51.109Z,0.00
2018-12-21T01:43:51.070Z,0.00
2018-12-21T01:44:51.077Z,0.00
2018-12-21T01:45:51.039Z,0.00
2018-12-21T01:46:51.038Z,0.00
2018-12-21T01:47:51.053Z,0.00
2018-12-21T01:48:51.038Z,0.00
2018-12-21T01:49:51.003Z,0.00
2018-12-21T01:50:50.994Z,0.00
2018-12-21T01:51:50.972Z,0.00
2018-12-21T01:52:50.965Z,0.00
2018-12-21T01:53:50.994Z,0.00
2018-12-21T01:54:50.945Z,0.00
2018-12-21T01:55:50.931Z,0.00
2018-12-21T01:56:50.975Z,0.00
2018-12-21T01:57:50.908Z,0.00
2018-12-21T01:58:50.926Z,0.00
2018-12-21T01:59:50.891Z,0.00
2018-12-21T02:00:50.881Z,0.00
2018-12-21T02:01:50.863Z,0.00
2018-12-21T02:02:50.864Z,0.00
2018-12-21T02:03:50.869Z,0.00
2018-12-21T02:04:50.844Z,0.00
2018-12-21T02:05:50.824Z,0.00
2018-12-21T02:06:50.819Z,0.00
2018-12-21T02:07:50.796Z,0.00
2018-12-21T02:08:50.788Z,0.00
2018-12-21T02:09:51.786Z,0.00
2018-12-21T02:10:50.761Z,0.00
2018-12-21T02:11:50.752Z,0.00
2018-12-21T02:12:50.750Z,0.00
2018-12-21T02:13:50.731Z,0.00
2018-12-21T02:14:50.724Z,0.00
2018-12-21T02:15:50.769Z,0.00
2018-12-21T02:16:50.695Z,0.00
2018-12-21T02:17:50.687Z,0.00
2018-12-21T02:18:50.672Z,0.00
2018-12-21T02:19:50.663Z,0.00
2018-12-21T02:20:50.706Z,0.00
2018-12-21T02:21:55.853Z,0.00
2018-12-21T02:22:51.629Z,0.00
2018-12-21T02:23:50.619Z,0.00
2018-12-21T02:24:50.611Z,0.00
2018-12-21T02:25:50.599Z,0.00
2018-12-21T02:26:50.642Z,0.00
2018-12-21T02:27:50.679Z,0.00
2018-12-21T02:28:50.569Z,0.00
2018-12-21T02:29:50.557Z,0.00
2018-12-21T02:30:50.541Z,0.00
2018-12-21T02:31:50.535Z,0.00
2018-12-21T02:32:50.556Z,0.00
2018-12-21T02:33:50.509Z,0.00
2018-12-21T02:34:50.503Z,0.00
2018-12-21T02:35:50.488Z,0.00
2018-12-21T02:36:50.476Z,0.00
2018-12-21T02:37:50.499Z,0.00
2018-12-21T02:38:50.459Z,0.00
2018-12-21T02:39:50.442Z,0.00
2018-12-21T02:40:50.430Z,0.00
2018-12-21T02:41:50.418Z,0.00
2018-12-21T02:42:50.422Z,0.00
2018-12-21T02:43:50.421Z,0.00
2018-12-21T02:44:50.386Z,0.00
2018-12-21T02:45:50.383Z,0.00
2018-12-21T02:46:50.375Z,0.00
2018-12-21T02:47:50.356Z,0.00
2018-12-21T02:48:50.385Z,0.00
2018-12-21T02:49:50.332Z,0.00
2018-12-21T02:50:50.321Z,0.00
2018-12-21T02:51:50.311Z,0.00
2018-12-21T02:52:50.307Z,0.00
2018-12-21T02:53:50.307Z,0.00
2018-12-21T02:54:50.301Z,0.00
2018-12-21T02:55:50.263Z,0.00
2018-12-21T02:56:50.827Z,0.00
2018-12-21T02:57:50.242Z,0.00
2018-12-21T02:58:50.230Z,0.00
2018-12-21T02:59:50.254Z,0.00
2018-12-21T03:00:50.203Z,0.00
2018-12-21T03:01:50.201Z,0.00
2018-12-21T03:02:50.185Z,0.00
2018-12-21T03:03:50.186Z,0.00
2018-12-21T03:04:50.187Z,0.00
2018-12-21T03:05:50.169Z,0.00
2018-12-21T03:06:50.149Z,0.00
2018-12-21T03:07:50.129Z,0.00
2018-12-21T03:08:50.796Z,0.00
2018-12-21T03:09:50.104Z,0.00
2018-12-21T03:10:50.130Z,0.00
2018-12-21T03:11:50.104Z,0.00
2018-12-21T03:12:50.075Z,0.00
2018-12-21T03:13:50.061Z,0.00
2018-12-21T03:14:50.058Z,0.00
2018-12-21T03:15:50.068Z,0.00
2018-12-21T03:16:50.029Z,0.00
2018-12-21T03:17:50.022Z,0.00
2018-12-21T03:18:50.006Z,0.00
2018-12-21T03:19:49.997Z,0.00
2018-12-21T03:20:49.982Z,0.00
2018-12-21T03:21:50.107Z,0.00
2018-12-21T03:22:49.959Z,0.00
2018-12-21T03:23:49.963Z,0.00
2018-12-21T03:24:49.936Z,0.00
2018-12-21T03:25:49.931Z,0.00
2018-12-21T03:26:49.957Z,0.00
2018-12-21T03:27:49.906Z,0.00
2018-12-21T03:28:49.895Z,0.00
2018-12-21T03:29:49.881Z,0.00
2018-12-21T03:30:49.877Z,0.00
2018-12-21T03:31:49.863Z,0.00
2018-12-21T03:32:49.899Z,0.00
2018-12-21T03:33:49.839Z,0.00
2018-12-21T03:34:49.835Z,0.00
2018-12-21T03:35:49.911Z,0.00
2018-12-21T03:36:49.808Z,0.00
2018-12-21T03:37:49.849Z,0.00
2018-12-21T03:38:49.795Z,0.00
2018-12-21T03:39:49.775Z,0.00
2018-12-21T03:40:49.759Z,0.00
2018-12-21T03:41:49.752Z,0.00
2018-12-21T03:42:49.765Z,0.00
2018-12-21T03:43:49.728Z,0.00
2018-12-21T03:44:49.717Z,0.00
2018-12-21T03:45:49.711Z,0.00
2018-12-21T03:46:49.691Z,0.00
2018-12-21T03:47:49.721Z,0.00
2018-12-21T03:48:49.676Z,0.00
2018-12-21T03:49:49.662Z,0.00
2018-12-21T03:50:49.659Z,0.00
2018-12-21T03:51:49.639Z,0.00
2018-12-21T03:52:49.627Z,0.00
2018-12-21T03:53:49.679Z,0.00
2018-12-21T03:54:49.654Z,0.00
2018-12-21T03:55:49.604Z,0.00
2018-12-21T03:56:49.584Z,0.00
2018-12-21T03:57:49.582Z,0.00
2018-12-21T03:58:49.585Z,0.00
2018-12-21T03:59:49.584Z,0.00
2018-12-21T04:00:49.535Z,0.00
2018-12-21T04:01:49.527Z,0.00
2018-12-21T04:02:49.516Z,0.00
2018-12-21T04:03:49.518Z,0.00
2018-12-21T04:04:49.528Z,0.00
2018-12-21T04:05:49.482Z,0.00
2018-12-21T04:06:49.466Z,0.00
2018-12-21T04:07:49.460Z,0.00
2018-12-21T04:08:49.448Z,0.00
2018-12-21T04:09:49.476Z,0.00
2018-12-21T04:10:49.435Z,0.00
2018-12-21T04:11:49.414Z,0.00
2018-12-21T04:12:49.405Z,0.00
2018-12-21T04:13:49.396Z,0.00
2018-12-21T04:14:49.384Z,0.00
2018-12-21T04:15:49.458Z,0.00
2018-12-21T04:16:49.362Z,0.00
2018-12-21T04:17:49.362Z,0.00
2018-12-21T04:18:49.343Z,0.00
2018-12-21T04:19:49.327Z,0.00
2018-12-21T04:20:49.336Z,0.00
2018-12-21T04:21:49.303Z,0.00
2018-12-21T04:22:49.290Z,0.00
2018-12-21T04:23:49.293Z,0.00
2018-12-21T04:24:49.268Z,0.00
2018-12-21T04:25:49.301Z,0.00
2018-12-21T04:26:49.250Z,0.00
2018-12-21T04:27:49.233Z,0.00
2018-12-21T04:28:49.228Z,0.00
2018-12-21T04:29:49.209Z,0.00
2018-12-21T04:30:49.209Z,0.00
2018-12-21T04:31:49.314Z,0.00
2018-12-21T04:32:49.179Z,0.00
2018-12-21T04:33:49.172Z,0.00
2018-12-21T04:34:49.154Z,0.00
2018-12-21T04:35:49.161Z,0.00
2018-12-21T04:36:49.184Z,0.00
2018-12-21T04:37:49.134Z,0.00
2018-12-21T04:38:49.111Z,0.00
2018-12-21T04:39:49.096Z,0.00
2018-12-21T04:40:49.085Z,0.00
2018-12-21T04:41:49.075Z,0.00
2018-12-21T04:42:49.129Z,0.00
2018-12-21T04:43:49.055Z,0.00
2018-12-21T04:44:49.045Z,0.00
2018-12-21T04:45:49.048Z,0.00
2018-12-21T04:46:49.021Z,0.00
2018-12-21T04:47:49.020Z,0.00
2018-12-21T04:48:49.027Z,0.00
2018-12-21T04:49:48.986Z,0.00
2018-12-21T04:50:48.976Z,0.00
2018-12-21T04:51:48.976Z,0.00
2018-12-21T04:52:48.966Z,0.00
2018-12-21T04:53:48.985Z,0.00
2018-12-21T04:54:48.941Z,0.00
2018-12-21T04:55:48.920Z,0.00
2018-12-21T04:56:48.908Z,0.00
2018-12-21T04:57:48.895Z,0.00
2018-12-21T04:58:48.886Z,0.00
2018-12-21T04:59:48.905Z,0.00
2018-12-21T05:00:48.863Z,0.00
2018-12-21T05:01:48.854Z,0.00
2018-12-21T05:02:48.864Z,0.00
2018-12-21T05:03:48.869Z,0.00
2018-12-21T05:04:48.846Z,0.00
2018-12-21T05:05:48.806Z,0.00
2018-12-21T05:06:48.800Z,0.00
2018-12-21T05:07:48.783Z,0.00
2018-12-21T05:08:48.781Z,0.00
2018-12-21T05:09:48.799Z,0.00
2018-12-21T05:10:48.775Z,0.00
2018-12-21T05:11:48.803Z,0.00
2018-12-21T05:12:48.725Z,0.00
2018-12-21T05:13:48.736Z,0.00
2018-12-21T05:14:48.703Z,0.00
2018-12-21T05:15:48.742Z,0.00
2018-12-21T05:16:48.685Z,0.00
2018-12-21T05:17:48.674Z,0.00
2018-12-21T05:18:48.665Z,0.00
2018-12-21T05:19:48.654Z,0.00
2018-12-21T05:20:48.666Z,0.00
2018-12-21T05:21:48.626Z,0.00
2018-12-21T05:22:52.383Z,0.00
2018-12-21T05:23:48.626Z,0.00
2018-12-21T05:24:48.596Z,0.00
2018-12-21T05:25:48.582Z,0.00
2018-12-21T05:26:48.602Z,0.00
2018-12-21T05:27:48.624Z,0.00
2018-12-21T05:28:48.551Z,0.00
2018-12-21T05:29:48.545Z,0.00
2018-12-21T05:30:48.543Z,0.00
2018-12-21T05:31:48.526Z,0.00
2018-12-21T05:32:48.551Z,0.00
2018-12-21T05:33:48.504Z,0.00
2018-12-21T05:34:49.903Z,0.00
2018-12-21T05:35:48.492Z,0.00
2018-12-21T05:36:48.469Z,0.00
2018-12-21T05:37:48.477Z,0.00
2018-12-21T05:38:48.437Z,0.00
2018-12-21T05:39:48.427Z,0.00
2018-12-21T05:40:48.417Z,0.00
2018-12-21T05:41:48.402Z,0.00
2018-12-21T05:42:48.393Z,0.00
2018-12-21T05:43:48.474Z,0.00
2018-12-21T05:44:48.377Z,0.00
2018-12-21T05:45:48.359Z,0.00
2018-12-21T05:46:48.349Z,0.00
2018-12-21T05:47:48.339Z,0.00
2018-12-21T05:48:48.330Z,0.00
2018-12-21T05:49:48.347Z,0.00
2018-12-21T05:50:48.330Z,0.00
2018-12-21T05:51:48.307Z,0.00
2018-12-21T05:52:48.285Z,0.00
2018-12-21T05:53:48.268Z,0.00
2018-12-21T05:54:48.314Z,0.00
2018-12-21T05:55:48.250Z,0.00
2018-12-21T05:56:48.236Z,0.00
2018-12-21T05:57:48.228Z,0.00
2018-12-21T05:58:48.218Z,0.00
2018-12-21T05:59:48.221Z,0.00
2018-12-21T06:00:48.237Z,0.00
2018-12-21T06:01:48.184Z,0.00
2018-12-21T06:02:48.170Z,0.00
2018-12-21T06:03:48.161Z,0.00
2018-12-21T06:04:48.153Z,0.00
2018-12-21T06:05:48.145Z,0.00
2018-12-21T06:06:48.169Z,0.00
2018-12-21T06:07:48.139Z,0.00
2018-12-21T06:08:48.103Z,0.00
2018-12-21T06:09:48.094Z,0.00
2018-12-21T06:10:48.097Z,0.00
2018-12-21T06:11:48.135Z,0.00
2018-12-21T06:12:48.059Z,0.00
2018-12-21T06:13:48.068Z,0.00
2018-12-21T06:14:48.045Z,0.00
2018-12-21T06:15:48.026Z,0.00
2018-12-21T06:16:48.043Z,0.00
2018-12-21T06:17:48.006Z,0.00
2018-12-21T06:18:47.991Z,0.00
2018-12-21T06:19:47.986Z,0.00
2018-12-21T06:20:47.966Z,0.00
2018-12-21T06:21:47.990Z,0.00
2018-12-21T06:22:47.949Z,0.00
2018-12-21T06:23:48.020Z,0.00
2018-12-21T06:24:47.925Z,0.00
2018-12-21T06:25:47.914Z,0.00
2018-12-21T06:26:47.921Z,0.00
2018-12-21T06:27:47.945Z,0.00
2018-12-21T06:28:47.880Z,0.00
2018-12-21T06:29:47.873Z,0.00
2018-12-21T06:30:47.866Z,0.00
2018-12-21T06:31:47.871Z,0.00
2018-12-21T06:32:47.886Z,0.00
2018-12-21T06:33:47.832Z,0.00
2018-12-21T06:34:47.839Z,0.00
2018-12-21T06:35:47.801Z,0.00
2018-12-21T06:36:47.823Z,0.00
2018-12-21T06:37:48.598Z,0.00
2018-12-21T06:38:47.774Z,0.00
2018-12-21T06:39:47.837Z,0.00
2018-12-21T06:40:47.756Z,0.00
2018-12-21T06:41:47.738Z,0.00
2018-12-21T06:42:47.864Z,0.00
2018-12-21T06:43:47.726Z,0.00
2018-12-21T06:44:47.699Z,0.00
2018-12-21T06:45:47.695Z,0.00
2018-12-21T06:46:47.682Z,0.00
2018-12-21T06:47:47.776Z,0.00
2018-12-21T06:48:47.685Z,0.00
2018-12-21T06:49:47.698Z,0.00
2018-12-21T06:50:47.637Z,0.00
2018-12-21T06:51:47.640Z,0.00
2018-12-21T06:52:47.610Z,0.00
2018-12-21T06:53:47.714Z,0.00
2018-12-21T06:54:47.590Z,0.00
2018-12-21T06:55:47.582Z,0.00
2018-12-21T06:56:47.565Z,0.00
2018-12-21T06:57:47.597Z,0.00
2018-12-21T06:58:47.550Z,0.00
2018-12-21T06:59:47.532Z,0.00
2018-12-21T07:00:47.526Z,0.00
2018-12-21T07:01:47.511Z,0.00
2018-12-21T07:02:47.504Z,0.00
2018-12-21T07:03:47.517Z,0.00
2018-12-21T07:04:47.479Z,0.00
2018-12-21T07:05:47.471Z,0.00
2018-12-21T07:06:47.507Z,0.00
2018-12-21T07:07:47.453Z,0.00
2018-12-21T07:08:47.463Z,0.00
2018-12-21T07:09:47.452Z,0.00
2018-12-21T07:10:47.416Z,0.00
2018-12-21T07:11:47.403Z,0.00
2018-12-21T07:12:47.388Z,0.00
2018-12-21T07:13:47.378Z,0.00
2018-12-21T07:14:47.397Z,0.00
2018-12-21T07:15:47.358Z,4.00
2018-12-21T07:16:47.345Z,4.00
2018-12-21T07:17:47.341Z,4.00
2018-12-21T07:18:47.325Z,4.00
2018-12-21T07:19:47.309Z,4.00
2018-12-21T07:20:47.324Z,4.00
2018-12-21T07:21:47.286Z,4.00
2018-12-21T07:22:47.344Z,4.00
2018-12-21T07:23:47.270Z,4.00
2018-12-21T07:24:47.260Z,8.00
2018-12-21T07:25:47.302Z,4.00
2018-12-21T07:26:47.244Z,8.00
2018-12-21T07:27:47.226Z,8.00
2018-12-21T07:28:47.209Z,8.00
2018-12-21T07:29:47.201Z,8.00
2018-12-21T07:30:47.200Z,12.00
2018-12-21T07:31:47.240Z,8.00
2018-12-21T07:32:47.172Z,8.00
2018-12-21T07:33:47.157Z,8.00
2018-12-21T07:34:47.157Z,8.00
2018-12-21T07:35:47.135Z,8.00
2018-12-21T07:36:47.123Z,8.00
2018-12-21T07:37:47.154Z,4.00
2018-12-21T07:38:47.110Z,8.00
2018-12-21T07:39:47.088Z,8.00
2018-12-21T07:40:47.105Z,8.00
2018-12-21T07:41:47.063Z,8.00
2018-12-21T07:42:47.083Z,8.00
2018-12-21T07:43:47.049Z,12.00
2018-12-21T07:44:47.033Z,12.00
2018-12-21T07:45:47.028Z,12.00
2018-12-21T07:46:47.012Z,12.00
2018-12-21T07:47:47.015Z,16.00
2018-12-21T07:48:47.050Z,20.00
2018-12-21T07:49:46.982Z,24.00
2018-12-21T07:50:46.963Z,28.00
2018-12-21T07:51:46.964Z,32.00
2018-12-21T07:52:46.946Z,36.00
2018-12-21T07:53:46.968Z,36.00
2018-12-21T07:54:46.956Z,40.00
2018-12-21T07:55:46.914Z,48.00
2018-12-21T07:56:46.903Z,48.00
2018-12-21T07:57:46.900Z,52.00
2018-12-21T07:58:46.872Z,48.00
2018-12-21T07:59:46.939Z,60.00
2018-12-21T08:00:46.851Z,56.00
2018-12-21T08:01:46.851Z,56.00
2018-12-21T08:02:46.833Z,52.00
2018-12-21T08:03:46.822Z,40.00
2018-12-21T08:04:46.806Z,40.00
2018-12-21T08:05:46.823Z,36.00
2018-12-21T08:06:46.804Z,40.00
2018-12-21T08:07:46.771Z,36.00
2018-12-21T08:08:46.759Z,44.00
2018-12-21T08:09:46.751Z,48.00
2018-12-21T08:10:46.774Z,56.00
2018-12-21T08:11:46.734Z,64.00
2018-12-21T08:12:46.713Z,68.00
2018-12-21T08:13:46.707Z,72.00
2018-12-21T08:14:46.690Z,72.00
2018-12-21T08:15:46.684Z,72.00
2018-12-21T08:16:46.723Z,64.00
2018-12-21T08:17:46.660Z,60.00
2018-12-21T08:18:46.655Z,52.00
2018-12-21T08:19:46.639Z,56.00
2018-12-21T08:20:46.675Z,72.00
2018-12-21T08:21:46.612Z,80.00
2018-12-21T08:22:46.612Z,92.00
2018-12-21T08:23:46.599Z,96.00
2018-12-21T08:24:47.406Z,92.00
2018-12-21T08:25:46.574Z,116.00
2018-12-21T08:26:46.676Z,100.00
2018-12-21T08:27:46.546Z,96.00
2018-12-21T08:28:46.553Z,112.00
2018-12-21T08:29:46.527Z,96.00
2018-12-21T08:30:46.519Z,112.00
2018-12-21T08:31:46.584Z,132.00
2018-12-21T08:32:46.492Z,132.00
2018-12-21T08:33:46.482Z,120.00
2018-12-21T08:34:46.471Z,108.00
2018-12-21T08:35:46.462Z,124.00
2018-12-21T08:36:46.446Z,132.00
2018-12-21T08:37:46.638Z,132.00
2018-12-21T08:38:46.428Z,120.00
2018-12-21T08:39:46.490Z,124.00
2018-12-21T08:40:46.414Z,156.00
2018-12-21T08:41:46.394Z,164.00
2018-12-21T08:42:46.433Z,156.00
2018-12-21T08:43:46.372Z,144.00
2018-12-21T08:44:46.364Z,148.00
2018-12-21T08:45:46.351Z,184.00
2018-12-21T08:46:46.336Z,220.00
2018-12-21T08:47:46.328Z,272.00
2018-12-21T08:48:46.336Z,264.00
2018-12-21T08:49:46.298Z,248.00
2018-12-21T08:50:46.294Z,232.00
2018-12-21T08:51:46.285Z,248.00
2018-12-21T08:52:46.300Z,260.00
2018-12-21T08:53:52.477Z,260.00
2018-12-21T08:54:47.246Z,304.00
2018-12-21T08:55:46.235Z,304.00
2018-12-21T08:56:46.223Z,300.00
2018-12-21T08:57:46.208Z,264.00
2018-12-21T08:58:46.300Z,412.00
2018-12-21T08:59:46.190Z,392.00
2018-12-21T09:00:46.178Z,296.00
2018-12-21T09:01:46.164Z,320.00
2018-12-21T09:02:46.156Z,292.00
2018-12-21T09:03:46.186Z,268.00
2018-12-21T09:04:46.134Z,264.00
2018-12-21T09:05:46.132Z,232.00
2018-12-21T09:06:46.145Z,268.00
2018-12-21T09:07:46.101Z,272.00
2018-12-21T09:08:46.152Z,300.00
2018-12-21T09:09:46.082Z,308.00
2018-12-21T09:10:46.068Z,400.00
2018-12-21T09:11:46.055Z,464.00
2018-12-21T09:12:46.044Z,332.00
2018-12-21T09:13:46.095Z,388.00
2018-12-21T09:14:46.022Z,376.00
2018-12-21T09:15:46.016Z,344.00
2018-12-21T09:16:46.005Z,380.00
2018-12-21T09:17:45.993Z,332.00
2018-12-21T09:18:46.028Z,256.00
2018-12-21T09:19:45.962Z,236.00
2018-12-21T09:20:45.956Z,204.00
2018-12-21T09:21:45.947Z,244.00
2018-12-21T09:22:46.000Z,296.00
2018-12-21T09:23:46.001Z,308.00
2018-12-21T09:24:45.935Z,364.00
2018-12-21T09:25:45.896Z,456.00
2018-12-21T09:26:45.895Z,460.00
2018-12-21T09:27:45.885Z,488.00
2018-12-21T09:28:45.874Z,540.00
2018-12-21T09:29:45.911Z,516.00
2018-12-21T09:30:45.843Z,444.00
2018-12-21T09:31:45.833Z,444.00
2018-12-21T09:32:45.829Z,460.00
2018-12-21T09:33:45.812Z,440.00
2018-12-21T09:34:45.832Z,444.00
2018-12-21T09:35:45.876Z,480.00
2018-12-21T09:36:45.773Z,492.00
2018-12-21T09:37:45.765Z,456.00
2018-12-21T09:38:45.791Z,444.00
2018-12-21T09:39:45.744Z,456.00
2018-12-21T09:40:45.765Z,432.00
2018-12-21T09:41:45.716Z,408.00
2018-12-21T09:42:45.738Z,460.00
2018-12-21T09:43:45.698Z,468.00
2018-12-21T09:44:52.457Z,384.00
2018-12-21T09:45:46.704Z,424.00
2018-12-21T09:46:45.667Z,496.00
2018-12-21T09:47:45.653Z,476.00
2018-12-21T09:48:45.648Z,468.00
2018-12-21T09:49:45.630Z,496.00
2018-12-21T09:50:45.655Z,500.00
2018-12-21T09:51:45.603Z,456.00
2018-12-21T09:52:45.621Z,484.00
2018-12-21T09:53:45.596Z,476.00
2018-12-21T09:54:45.598Z,444.00
2018-12-21T09:55:45.650Z,492.00
2018-12-21T09:56:45.617Z,480.00
2018-12-21T09:57:45.537Z,364.00
2018-12-21T09:58:45.527Z,456.00
2018-12-21T09:59:45.517Z,348.00
2018-12-21T10:00:45.522Z,332.00
2018-12-21T10:01:45.501Z,312.00
2018-12-21T10:02:45.518Z,408.00
2018-12-21T10:03:45.491Z,412.00
2018-12-21T10:04:45.473Z,416.00
2018-12-21T10:05:45.455Z,484.00
2018-12-21T10:06:45.445Z,436.00
2018-12-21T10:07:45.470Z,424.00
2018-12-21T10:08:45.418Z,472.00
2018-12-21T10:09:45.410Z,416.00
2018-12-21T10:10:45.396Z,408.00
2018-12-21T10:11:45.471Z,452.00
2018-12-21T10:12:45.376Z,468.00
2018-12-21T10:13:45.391Z,444.00
2018-12-21T10:14:45.347Z,424.00
2018-12-21T10:15:45.339Z,428.00
2018-12-21T10:16:45.327Z,428.00
2018-12-21T10:17:45.326Z,460.00
2018-12-21T10:18:45.329Z,464.00
2018-12-21T10:19:45.325Z,472.00
2018-12-21T10:20:45.304Z,496.00
2018-12-21T10:21:45.275Z,392.00
2018-12-21T10:22:45.263Z,384.00
2018-12-21T10:23:45.255Z,432.00
2018-12-21T10:24:45.285Z,380.00
2018-12-21T10:25:45.228Z,408.00
2018-12-21T10:26:45.221Z,432.00
2018-12-21T10:27:45.215Z,392.00
2018-12-21T10:28:45.194Z,404.00
2018-12-21T10:29:45.221Z,356.00
2018-12-21T10:30:45.176Z,356.00
2018-12-21T10:31:45.163Z,384.00
2018-12-21T10:32:45.148Z,424.00
2018-12-21T10:33:45.153Z,464.00
2018-12-21T10:34:45.173Z,456.00
2018-12-21T10:35:45.155Z,424.00
2018-12-21T10:36:45.107Z,456.00
2018-12-21T10:37:45.098Z,476.00
2018-12-21T10:38:45.085Z,524.00
2018-12-21T10:39:45.113Z,576.00
2018-12-21T10:40:45.434Z,516.00
2018-12-21T10:41:45.051Z,572.00
2018-12-21T10:42:45.039Z,612.00
2018-12-21T10:43:45.040Z,660.00
2018-12-21T10:44:45.020Z,628.00
2018-12-21T10:45:45.061Z,0.00
2018-12-21T10:46:45.003Z,36.00
2018-12-21T10:47:44.994Z,20.00
2018-12-21T10:48:44.969Z,20.00
2018-12-21T10:49:44.959Z,540.00
2018-12-21T10:50:45.028Z,616.00
2018-12-21T10:51:44.942Z,560.00
2018-12-21T10:52:44.944Z,436.00
2018-12-21T10:53:46.711Z,440.00
2018-12-21T10:54:44.972Z,488.00
2018-12-21T10:55:44.906Z,532.00
2018-12-21T10:56:45.320Z,472.00
2018-12-21T10:57:44.868Z,488.00
2018-12-21T10:58:44.907Z,604.00
2018-12-21T10:59:44.939Z,496.00
2018-12-21T11:00:44.880Z,576.00
2018-12-21T11:01:44.824Z,572.00
2018-12-21T11:02:44.811Z,468.00
2018-12-21T11:03:44.851Z,564.00
2018-12-21T11:04:44.793Z,556.00
2018-12-21T11:05:44.782Z,512.00
2018-12-21T11:06:44.800Z,452.00
2018-12-21T11:07:44.761Z,476.00
2018-12-21T11:08:44.743Z,424.00
2018-12-21T11:09:44.736Z,392.00
2018-12-21T11:10:45.896Z,412.00
2018-12-21T11:11:44.757Z,504.00
2018-12-21T11:12:44.702Z,416.00
2018-12-21T11:13:44.695Z,416.00
2018-12-21T11:14:44.704Z,516.00
2018-12-21T11:15:44.670Z,524.00
2018-12-21T11:16:44.717Z,476.00
2018-12-21T11:17:44.695Z,492.00
2018-12-21T11:18:44.639Z,552.00
2018-12-21T11:19:44.624Z,616.00
2018-12-21T11:20:44.613Z,584.00
2018-12-21T11:21:44.604Z,660.00
2018-12-21T11:22:44.671Z,624.00
2018-12-21T11:23:44.584Z,660.00
2018-12-21T11:24:44.573Z,664.00
2018-12-21T11:25:44.568Z,584.00
2018-12-21T11:26:44.560Z,648.00
2018-12-21T11:27:44.536Z,684.00
2018-12-21T11:28:44.554Z,664.00
2018-12-21T11:29:44.513Z,916.00
2018-12-21T11:30:44.541Z,848.00
2018-12-21T11:31:44.491Z,736.00
2018-12-21T11:32:44.483Z,676.00
2018-12-21T11:33:44.521Z,1128.00
2018-12-21T11:34:44.462Z,908.00
2018-12-21T11:35:44.462Z,944.00
2018-12-21T11:36:44.439Z,784.00
2018-12-21T11:37:44.430Z,768.00
2018-12-21T11:38:44.422Z,1044.00
2018-12-21T11:39:44.535Z,892.00
2018-12-21T11:40:44.394Z,892.00
2018-12-21T11:41:44.379Z,716.00
2018-12-21T11:42:44.365Z,580.00
2018-12-21T11:43:44.393Z,812.00
2018-12-21T11:44:44.378Z,676.00
2018-12-21T11:45:44.336Z,588.00
2018-12-21T11:46:44.327Z,720.00
2018-12-21T11:47:44.314Z,520.00
2018-12-21T11:48:44.312Z,564.00
2018-12-21T11:49:44.309Z,436.00
2018-12-21T11:50:44.318Z,516.00
2018-12-21T11:51:44.269Z,516.00
2018-12-21T11:52:44.253Z,504.00
2018-12-21T11:53:44.252Z,524.00
2018-12-21T16:01:50.529Z,0.00
2018-12-21T16:02:50.497Z,0.00
2018-12-21T16:03:50.567Z,0.00
2018-12-21T16:04:50.476Z,0.00
2018-12-21T16:05:50.475Z,0.00
2018-12-21T16:43:56.627Z,0.00
2018-12-21T16:44:56.596Z,0.00
2018-12-21T16:45:56.577Z,0.00
2018-12-21T16:46:56.573Z,0.00
2018-12-21T16:47:56.583Z,0.00
2018-12-21T16:48:56.542Z,0.00
2018-12-21T16:49:56.528Z,0.00
2018-12-21T16:50:56.517Z,0.00
2018-12-21T16:52:03.556Z,0.00
2018-12-21T16:52:56.503Z,0.00
2018-12-21T16:53:56.547Z,0.00
2018-12-21T16:54:56.473Z,0.00
2018-12-21T16:55:56.511Z,0.00
2018-12-21T16:56:56.454Z,0.00
2018-12-21T16:59:06.151Z,0.00
2018-12-21T17:00:06.137Z,0.00
2018-12-21T17:01:06.157Z,0.00
2018-12-21T17:02:06.099Z,0.00
2018-12-21T17:03:06.120Z,0.00
2018-12-21T17:04:06.108Z,0.00
2018-12-21T17:05:06.088Z,0.00
2018-12-21T17:07:26.766Z,0.00
2018-12-21T17:08:26.727Z,0.00
2018-12-21T17:09:26.718Z,0.00
2018-12-21T17:10:26.709Z,0.00
2018-12-21T17:11:26.723Z,0.00
2018-12-21T17:13:39.268Z,0.00
2018-12-21T17:14:39.235Z,0.00
2018-12-21T17:15:39.218Z,0.00
2018-12-21T17:16:39.203Z,0.00
2018-12-21T17:17:40.082Z,0.00
2018-12-21T17:18:39.180Z,0.00
2018-12-21T17:19:39.246Z,0.00
2018-12-21T17:20:39.174Z,0.00
2018-12-21T17:21:39.222Z,0.00
2018-12-21T17:22:46.222Z,0.00
2018-12-21T17:23:39.131Z,0.00
2018-12-21T17:24:39.111Z,0.00
2018-12-21T17:25:39.130Z,0.00
2018-12-21T17:26:39.200Z,0.00
2018-12-21T17:27:39.080Z,0.00
2018-12-21T17:28:39.060Z,0.00
2018-12-21T17:29:39.106Z,0.00
2018-12-21T17:30:39.043Z,0.00
2018-12-21T17:31:42.349Z,0.00
2018-12-21T17:32:39.032Z,0.00
2018-12-21T17:33:39.020Z,0.00
2018-12-21T17:34:38.999Z,0.00
2018-12-21T17:35:39.014Z,0.00
2018-12-21T17:36:38.986Z,0.00
2018-12-21T17:37:38.996Z,0.00
2018-12-21T17:38:38.977Z,0.00
2018-12-21T17:39:38.943Z,0.00
2018-12-21T17:40:38.926Z,0.00
2018-12-21T17:41:38.946Z,0.00
2018-12-21T17:42:38.904Z,0.00
2018-12-21T17:43:38.922Z,0.00
2018-12-21T17:44:38.919Z,0.00
2018-12-21T17:45:38.975Z,0.00
2018-12-21T17:46:38.890Z,0.00
2018-12-21T17:47:38.881Z,0.00
2018-12-21T17:48:38.845Z,0.00
2018-12-21T17:49:38.894Z,0.00
2018-12-21T17:50:38.816Z,0.00
2018-12-21T17:51:38.837Z,0.00